Time;durP1;ratioP1;P1;durP2;ratioP2;P2;SDS_P1;SDS_P2;PMS_P1;PMS_P2;Temp;Humidity;BMP_temperature;BMP_pressure;BME280_temperature;BME280_humidity;BME280_pressure;Samples;Min_cycle;Max_cycle;Signal;HPM_P1;HPM_P2
2023/12/18 00:01:41;;;;;;;;;;;;;;;;;;4198169;28;19925;-64
2023/12/18 00:03:43;;;;;;;;;;;;;;;;;;4198220;28;19974;-64
2023/12/18 00:05:44;;;;;;;;;;;;;;;;;;4198259;28;19964;-63
2023/12/18 00:07:46;;;;;;;;;;;;;;;;;;4197201;28;19933;-64
2023/12/18 00:09:47;;;;;;;;;;;;;;;;;;4213840;28;19928;-64
2023/12/18 00:11:49;;;;;;;;;;;;;;;;;;4215347;28;20383;-64
2023/12/18 00:13:50;;;;;;;;;;;;;;;;;;4201581;28;20342;-64
2023/12/18 00:15:52;;;;;;;;;;;;;;;;;;4197530;28;19935;-65
2023/12/18 00:17:53;;;;;;;;;;;;;;;;;;4198052;28;19977;-64
2023/12/18 00:19:55;;;;;;;;;;;;;;;;;;4198232;28;19935;-64
2023/12/18 00:21:56;;;;;;;;;;;;;;;;;;4196354;28;19971;-64
2023/12/18 00:23:58;;;;;;;;;;;;;;;;;;4198221;28;19929;-63
2023/12/18 00:25:59;;;;;;;;;;;;;;;;;;4198299;28;19936;-64
2023/12/18 00:28:01;;;;;;;;;;;;;;;;;;4198057;28;20022;-64
2023/12/18 00:30:03;;;;;;;;;;;;;;;;;;4198173;28;19975;-67
2023/12/18 00:32:04;;;;;;;;;;;;;;;;;;4198120;28;19930;-68
2023/12/18 00:34:06;;;;;;;;;;;;;;;;;;4198061;28;19950;-68
2023/12/18 00:36:08;;;;;;;;;;;;;;;;;;4198213;28;19934;-68
2023/12/18 00:38:10;;;;;;;;;;;;;;;;;;4198011;28;19978;-68
2023/12/18 00:40:11;;;;;;;;;;;;;;;;;;4196605;28;19925;-68
2023/12/18 00:42:12;;;;;;;;;;;;;;;;;;4196524;28;19933;-67
2023/12/18 00:44:14;;;;;;;;;;;;;;;;;;4197874;28;20023;-68
2023/12/18 00:46:15;;;;;;;;;;;;;;;;;;4197867;28;19925;-68
2023/12/18 00:48:17;;;;;;;;;;;;;;;;;;4196569;28;19994;-68
2023/12/18 00:50:18;;;;;;;;;;;;;;;;;;4196531;28;19925;-68
2023/12/18 00:52:20;;;;;;;;;;;;;;;;;;4200741;28;19930;-68
2023/12/18 00:54:22;;;;;;;;;;;;;;;;;;4196826;28;20011;-68
2023/12/18 00:56:23;;;;;;;;;;;;;;;;;;4197940;28;20391;-68
2023/12/18 00:58:25;;;;;;;;;;;;;;;;;;4197881;28;19928;-68
2023/12/18 01:00:26;;;;;;;;;;;;;;;;;;4197548;28;19928;-67
2023/12/18 01:02:28;;;;;;;;;;;;;;;;;;4197517;28;20269;-68
2023/12/18 01:04:29;;;;;;;;;;;;;;;;;;4197307;28;19928;-67
2023/12/18 01:06:31;;;;;;;;;;;;;;;;;;4197483;28;19935;-68
2023/12/18 01:08:33;;;;;;;;;;;;;;;;;;4202980;28;19935;-68
2023/12/18 01:10:34;;;;;;;;;;;;;;;;;;4197582;28;19928;-68
2023/12/18 01:12:36;;;;;;;;;;;;;;;;;;4197671;28;19928;-67
2023/12/18 01:14:37;;;;;;;;;;;;;;;;;;4197492;28;20307;-67
2023/12/18 01:16:39;;;;;;;;;;;;;;;;;;4197534;28;19929;-68
2023/12/18 01:18:40;;;;;;;;;;;;;;;;;;4197784;28;19928;-68
2023/12/18 01:20:42;;;;;;;;;;;;;;;;;;4197367;28;20326;-67
2023/12/18 01:22:43;;;;;;;;;;;;;;;;;;4197404;28;19928;-67
2023/12/18 01:24:47;;;;;;;;;;;;;;;;;;4197703;28;19935;-68
2023/12/18 01:26:48;;;;;;;;;;;;;;;;;;4202860;28;20399;-67
2023/12/18 01:28:50;;;;;;;;;;;;;;;;;;4203006;28;20003;-68
2023/12/18 01:30:51;;;;;;;;;;;;;;;;;;4203108;28;19925;-68
2023/12/18 01:32:53;;;;;;;;;;;;;;;;;;4203013;28;20003;-68
2023/12/18 01:34:54;;;;;;;;;;;;;;;;;;4203229;28;19925;-68
2023/12/18 01:36:56;;;;;;;;;;;;;;;;;;4202967;28;19924;-68
2023/12/18 01:38:57;;;;;;;;;;;;;;;;;;4202810;28;19978;-68
2023/12/18 01:40:59;;;;;;;;;;;;;;;;;;4203078;28;19925;-68
2023/12/18 01:43:00;;;;;;;;;;;;;;;;;;4202893;28;19924;-68
2023/12/18 01:45:02;;;;;;;;;;;;;;;;;;4202803;28;20371;-68
2023/12/18 01:47:03;;;;;;;;;;;;;;;;;;4202859;28;19929;-68
2023/12/18 01:49:05;;;;;;;;;;;;;;;;;;4202657;28;20304;-68
2023/12/18 01:51:06;;;;;;;;;;;;;;;;;;4202727;28;19990;-68
2023/12/18 01:53:08;;;;;;;;;;;;;;;;;;4215001;28;19975;-67
2023/12/18 01:55:09;;;;;;;;;;;;;;;;;;4219481;28;20269;-68
2023/12/18 01:57:11;;;;;;;;;;;;;;;;;;4219472;28;19924;-68
2023/12/18 01:59:12;;;;;;;;;;;;;;;;;;4218601;28;19928;-67
2023/12/18 02:01:13;;;;;;;;;;;;;;;;;;4219242;28;19924;-67
2023/12/18 02:03:16;;;;;;;;;;;;;;;;;;4219205;28;19928;-68
2023/12/18 02:05:18;;;;;;;;;;;;;;;;;;4214945;28;20027;-67
2023/12/18 02:07:19;;;;;;;;;;;;;;;;;;4202665;28;20023;-67
2023/12/18 02:09:21;;;;;;;;;;;;;;;;;;4212566;28;19925;-68
2023/12/18 02:11:23;;;;;;;;;;;;;;;;;;4202526;28;19924;-68
2023/12/18 02:13:25;;;;;;;;;;;;;;;;;;4202608;28;20395;-68
2023/12/18 02:15:26;;;;;;;;;;;;;;;;;;4202503;28;19947;-68
2023/12/18 02:17:28;;;;;;;;;;;;;;;;;;4202530;28;19928;-68
2023/12/18 02:19:29;;;;;;;;;;;;;;;;;;4202656;28;19931;-68
2023/12/18 02:21:31;;;;;;;;;;;;;;;;;;4202574;28;19924;-68
2023/12/18 02:23:33;;;;;;;;;;;;;;;;;;4202661;28;19925;-68
2023/12/18 02:25:34;;;;;;;;;;;;;;;;;;4202696;28;19924;-68
2023/12/18 02:27:35;;;;;;;;;;;;;;;;;;4202503;28;20241;-67
2023/12/18 02:29:37;;;;;;;;;;;;;;;;;;4202578;28;19928;-67
2023/12/18 02:31:38;;;;;;;;;;;;;;;;;;4202470;28;19982;-68
2023/12/18 02:33:40;;;;;;;;;;;;;;;;;;4202548;28;19924;-68
2023/12/18 02:35:42;;;;;;;;;;;;;;;;;;4202269;28;19924;-68
2023/12/18 02:37:43;;;;;;;;;;;;;;;;;;4199812;28;20015;-68
2023/12/18 02:39:45;;;;;;;;;;;;;;;;;;4199985;28;20425;-67
2023/12/18 02:41:46;;;;;;;;;;;;;;;;;;4200082;28;19975;-68
2023/12/18 02:43:48;;;;;;;;;;;;;;;;;;4198544;28;19932;-68
2023/12/18 02:45:49;;;;;;;;;;;;;;;;;;4199565;28;19931;-68
2023/12/18 02:47:51;;;;;;;;;;;;;;;;;;4199687;28;19947;-68
2023/12/18 02:49:52;;;;;;;;;;;;;;;;;;4198428;28;19986;-68
2023/12/18 02:51:54;;;;;;;;;;;;;;;;;;4200484;28;19928;-68
2023/12/18 02:53:55;;;;;;;;;;;;;;;;;;4198707;28;20517;-67
2023/12/18 02:55:57;;;;;;;;;;;;;;;;;;4198005;28;19928;-68
2023/12/18 02:57:58;;;;;;;;;;;;;;;;;;4198037;28;20032;-68
2023/12/18 03:00:00;;;;;;;;;;;;;;;;;;4197902;28;19963;-68
2023/12/18 03:02:01;;;;;;;;;;;;;;;;;;4197650;28;19928;-68
2023/12/18 03:04:03;;;;;;;;;;;;;;;;;;4197590;28;19977;-68
2023/12/18 03:06:05;;;;;;;;;;;;;;;;;;4198027;28;19940;-68
2023/12/18 03:08:06;;;;;;;;;;;;;;;;;;4199317;28;20382;-68
2023/12/18 03:10:08;;;;;;;;;;;;;;;;;;4214773;28;19928;-68
2023/12/18 03:12:09;;;;;;;;;;;;;;;;;;4214843;28;19928;-68
2023/12/18 03:14:11;;;;;;;;;;;;;;;;;;4207113;28;19924;-68
2023/12/18 03:16:12;;;;;;;;;;;;;;;;;;4199393;28;20384;-68
2023/12/18 03:18:14;;;;;;;;;;;;;;;;;;4199481;28;20021;-68
2023/12/18 03:20:15;;;;;;;;;;;;;;;;;;4199278;28;19954;-68
2023/12/18 03:22:17;;;;;;;;;;;;;;;;;;4199451;28;19929;-68
2023/12/18 03:24:18;;;;;;;;;;;;;;;;;;4199031;28;19935;-68
2023/12/18 03:26:22;;;;;;;;;;;;;;;;;;4199024;28;20343;-68
2023/12/18 03:28:24;;;;;;;;;;;;;;;;;;4199260;28;19924;-68
2023/12/18 03:30:25;;;;;;;;;;;;;;;;;;4199071;28;20331;-68
2023/12/18 03:32:27;;;;;;;;;;;;;;;;;;4198890;28;19951;-68
2023/12/18 03:34:28;;;;;;;;;;;;;;;;;;4198941;28;19974;-68
2023/12/18 03:36:30;;;;;;;;;;;;;;;;;;4197982;28;19929;-68
2023/12/18 03:38:31;;;;;;;;;;;;;;;;;;4198910;28;20296;-68
2023/12/18 03:40:33;;;;;;;;;;;;;;;;;;4199138;28;19924;-68
2023/12/18 03:42:34;;;;;;;;;;;;;;;;;;4198759;28;19925;-68
2023/12/18 03:44:36;;;;;;;;;;;;;;;;;;4198809;28;19986;-68
2023/12/18 03:46:37;;;;;;;;;;;;;;;;;;4198817;28;19928;-68
2023/12/18 03:48:38;;;;;;;;;;;;;;;;;;4196776;28;19936;-68
2023/12/18 03:50:40;;;;;;;;;;;;;;;;;;4198736;28;20011;-69
2023/12/18 03:52:42;;;;;;;;;;;;;;;;;;4207243;28;19977;-68
2023/12/18 03:54:43;;;;;;;;;;;;;;;;;;4215388;28;19947;-68
2023/12/18 03:56:44;;;;;;;;;;;;;;;;;;4215430;28;20429;-68
2023/12/18 03:58:46;;;;;;;;;;;;;;;;;;4203607;28;20494;-68
2023/12/18 04:00:47;;;;;;;;;;;;;;;;;;4198598;28;19925;-68
2023/12/18 04:02:49;;;;;;;;;;;;;;;;;;4196918;28;19935;-63
2023/12/18 04:04:51;;;;;;;;;;;;;;;;;;4198273;28;19968;-64
2023/12/18 04:06:53;;;;;;;;;;;;;;;;;;4198478;28;19972;-64
2023/12/18 04:08:54;;;;;;;;;;;;;;;;;;4206421;28;19928;-64
2023/12/18 04:10:55;;;;;;;;;;;;;;;;;;4202402;28;20007;-64
2023/12/18 04:12:57;;;;;;;;;;;;;;;;;;4198722;28;20440;-64
2023/12/18 04:14:58;;;;;;;;;;;;;;;;;;4198421;28;20303;-64
2023/12/18 04:17:00;;;;;;;;;;;;;;;;;;4198353;28;19925;-64
2023/12/18 04:19:01;;;;;;;;;;;;;;;;;;4198205;28;19955;-64
2023/12/18 04:21:03;;;;;;;;;;;;;;;;;;4197042;28;20371;-63
2023/12/18 04:23:04;;;;;;;;;;;;;;;;;;4198242;28;19932;-64
2023/12/18 04:25:06;;;;;;;;;;;;;;;;;;4198269;28;19924;-64
2023/12/18 04:27:07;;;;;;;;;;;;;;;;;;4198119;28;19928;-64
2023/12/18 04:29:09;;;;;;;;;;;;;;;;;;4198346;28;20002;-64
2023/12/18 04:31:10;;;;;;;;;;;;;;;;;;4197938;28;19924;-64
2023/12/18 04:33:12;;;;;;;;;;;;;;;;;;4198114;28;19928;-64
2023/12/18 04:35:13;;;;;;;;;;;;;;;;;;4198256;28;19974;-64
2023/12/18 04:37:15;;;;;;;;;;;;;;;;;;4189987;28;20377;-64
2023/12/18 04:39:16;;;;;;;;;;;;;;;;;;4196709;28;19983;-64
2023/12/18 04:41:18;;;;;;;;;;;;;;;;;;4197770;28;19960;-64
2023/12/18 04:43:19;;;;;;;;;;;;;;;;;;4197953;28;19968;-64
2023/12/18 04:45:21;;;;;;;;;;;;;;;;;;4197827;28;20410;-64
2023/12/18 04:47:22;;;;;;;;;;;;;;;;;;4197686;28;20410;-64
2023/12/18 04:49:24;;;;;;;;;;;;;;;;;;4198056;28;20295;-64
2023/12/18 04:51:25;;;;;;;;;;;;;;;;;;4197675;28;19947;-64
2023/12/18 04:53:27;;;;;;;;;;;;;;;;;;4197725;28;20375;-63
2023/12/18 04:55:30;;;;;;;;;;;;;;;;;;4197536;28;20086;-64
2023/12/18 04:57:32;;;;;;;;;;;;;;;;;;4197743;28;20019;-64
2023/12/18 04:59:33;;;;;;;;;;;;;;;;;;4197812;28;19932;-64
2023/12/18 05:01:35;;;;;;;;;;;;;;;;;;4197252;28;19924;-65
2023/12/18 05:03:36;;;;;;;;;;;;;;;;;;4197336;28;19930;-64
2023/12/18 05:05:40;;;;;;;;;;;;;;;;;;4197563;28;19924;-64
2023/12/18 05:07:42;;;;;;;;;;;;;;;;;;4197487;28;20705;-63
2023/12/18 05:09:43;;;;;;;;;;;;;;;;;;4211507;28;20701;-64
2023/12/18 05:11:49;;;;;;;;;;;;;;;;;;4197821;28;19924;-64
2023/12/18 05:13:50;;;;;;;;;;;;;;;;;;4190741;28;20439;-63
2023/12/18 05:15:52;;;;;;;;;;;;;;;;;;4193325;28;19931;-64
2023/12/18 05:17:54;;;;;;;;;;;;;;;;;;4185338;28;19929;-64
2023/12/18 05:19:55;;;;;;;;;;;;;;;;;;4180906;28;19943;-64
2023/12/18 05:21:57;;;;;;;;;;;;;;;;;;4180933;28;19947;-64
2023/12/18 05:23:58;;;;;;;;;;;;;;;;;;4180832;28;20427;-64
2023/12/18 05:26:00;;;;;;;;;;;;;;;;;;4180745;28;19929;-64
2023/12/18 05:28:01;;;;;;;;;;;;;;;;;;4179649;28;20438;-64
2023/12/18 05:30:03;;;;;;;;;;;;;;;;;;4180878;28;20021;-63
2023/12/18 05:32:05;;;;;;;;;;;;;;;;;;4180901;28;19963;-64
2023/12/18 05:34:07;;;;;;;;;;;;;;;;;;4187589;28;19930;-64
2023/12/18 05:36:08;;;;;;;;;;;;;;;;;;4197467;28;20328;-64
2023/12/18 05:38:10;;;;;;;;;;;;;;;;;;4196280;28;19935;-64
2023/12/18 05:40:11;;;;;;;;;;;;;;;;;;4197529;28;20412;-64
2023/12/18 05:42:14;;;;;;;;;;;;;;;;;;4197587;28;20011;-63
2023/12/18 05:44:16;;;;;;;;;;;;;;;;;;4197172;28;20019;-64
2023/12/18 05:46:17;;;;;;;;;;;;;;;;;;4197447;28;19925;-65
2023/12/18 05:48:19;;;;;;;;;;;;;;;;;;4196452;28;20357;-64
2023/12/18 05:50:20;;;;;;;;;;;;;;;;;;4197173;28;19931;-64
2023/12/18 05:52:22;;;;;;;;;;;;;;;;;;4197562;28;19924;-63
2023/12/18 05:54:25;;;;;;;;;;;;;;;;;;4197158;28;19959;-64
2023/12/18 05:56:27;;;;;;;;;;;;;;;;;;4197207;28;20340;-64
2023/12/18 05:58:28;;;;;;;;;;;;;;;;;;4197178;28;19925;-64
2023/12/18 06:00:30;;;;;;;;;;;;;;;;;;4196999;28;19982;-64
2023/12/18 06:02:31;;;;;;;;;;;;;;;;;;4197114;28;19935;-63
2023/12/18 06:04:33;;;;;;;;;;;;;;;;;;4197044;28;19976;-64
2023/12/18 06:06:34;;;;;;;;;;;;;;;;;;4196913;28;20073;-64
2023/12/18 06:08:36;;;;;;;;;;;;;;;;;;4202771;28;20364;-64
2023/12/18 06:10:37;;;;;;;;;;;;;;;;;;4212476;28;19932;-64
2023/12/18 06:12:39;;;;;;;;;;;;;;;;;;4214723;28;19932;-64
2023/12/18 06:14:41;;;;;;;;;;;;;;;;;;4209974;28;20277;-64
2023/12/18 06:16:43;;;;;;;;;;;;;;;;;;4199760;28;19924;-64
2023/12/18 06:18:45;;;;;;;;;;;;;;;;;;4199871;28;19932;-66
2023/12/18 06:20:47;;;;;;;;;;;;;;;;;;4199619;28;19925;-66
2023/12/18 06:22:48;;;;;;;;;;;;;;;;;;4199983;28;20014;-66
2023/12/18 06:24:49;;;;;;;;;;;;;;;;;;4193211;28;19936;-66
2023/12/18 06:26:52;;;;;;;;;;;;;;;;;;4199711;28;19956;-64
2023/12/18 06:28:54;;;;;;;;;;;;;;;;;;4192402;28;19979;-64
2023/12/18 06:30:55;;;;;;;;;;;;;;;;;;4198780;28;19924;-64
2023/12/18 06:32:57;;;;;;;;;;;;;;;;;;4199032;28;19967;-67
2023/12/18 06:34:59;;;;;;;;;;;;;;;;;;4199825;28;19978;-67
2023/12/18 06:37:00;;;;;;;;;;;;;;;;;;4199560;28;19958;-67
2023/12/18 06:39:02;;;;;;;;;;;;;;;;;;4197790;28;20375;-66
2023/12/18 06:41:04;;;;;;;;;;;;;;;;;;4196431;28;19932;-67
2023/12/18 06:43:06;;;;;;;;;;;;;;;;;;4200022;28;19925;-64
2023/12/18 06:45:07;;;;;;;;;;;;;;;;;;4197562;28;20352;-64
2023/12/18 06:47:09;;;;;;;;;;;;;;;;;;4197469;28;19947;-64
2023/12/18 06:49:10;;;;;;;;;;;;;;;;;;4182579;28;19952;-64
2023/12/18 06:51:12;;;;;;;;;;;;;;;;;;4189720;28;19932;-65
2023/12/18 06:53:13;;;;;;;;;;;;;;;;;;4194875;28;19932;-64
2023/12/18 06:55:15;;;;;;;;;;;;;;;;;;4199692;28;19968;-64
2023/12/18 06:57:16;;;;;;;;;;;;;;;;;;4199644;28;19947;-64
2023/12/18 06:59:17;;;;;;;;;;;;;;;;;;4195763;28;20453;-64
2023/12/18 07:01:19;;;;;;;;;;;;;;;;;;4192267;28;19931;-64
2023/12/18 07:03:20;;;;;;;;;;;;;;;;;;4189213;28;19938;-65
2023/12/18 07:05:23;;;;;;;;;;;;;;;;;;4191388;28;19925;-64
2023/12/18 07:07:25;;;;;;;;;;;;;;;;;;4196474;28;19924;-64
2023/12/18 07:09:26;;;;;;;;;;;;;;;;;;4207729;28;19973;-64
2023/12/18 07:11:28;;;;;;;;;;;;;;;;;;4193477;28;19932;-64
2023/12/18 07:13:29;;;;;;;;;;;;;;;;;;4191514;28;20292;-65
2023/12/18 07:15:31;;;;;;;;;;;;;;;;;;4192606;28;19979;-64
2023/12/18 07:17:33;;;;;;;;;;;;;;;;;;4194293;28;20022;-64
2023/12/18 07:19:34;;;;;;;;;;;;;;;;;;4194139;28;20455;-64
2023/12/18 07:21:36;;;;;;;;;;;;;;;;;;4194956;28;19929;-64
2023/12/18 07:23:37;;;;;;;;;;;;;;;;;;4193631;28;19925;-65
2023/12/18 07:25:39;;;;;;;;;;;;;;;;;;4189961;28;20293;-65
2023/12/18 07:27:40;;;;;;;;;;;;;;;;;;4194100;28;20313;-63
2023/12/18 07:29:42;;;;;;;;;;;;;;;;;;4199231;28;19925;-64
2023/12/18 07:31:43;;;;;;;;;;;;;;;;;;4199010;28;20465;-65
2023/12/18 07:33:45;;;;;;;;;;;;;;;;;;4197730;28;19928;-64
2023/12/18 07:35:46;;;;;;;;;;;;;;;;;;4195644;28;19960;-64
2023/12/18 07:37:48;;;;;;;;;;;;;;;;;;4193169;28;19929;-64
2023/12/18 07:39:49;;;;;;;;;;;;;;;;;;4194960;28;19929;-64
2023/12/18 07:41:51;;;;;;;;;;;;;;;;;;4195110;28;19979;-64
2023/12/18 07:43:52;;;;;;;;;;;;;;;;;;4195163;28;19928;-64
2023/12/18 07:45:54;;;;;;;;;;;;;;;;;;4195988;28;20386;-64
2023/12/18 07:47:56;;;;;;;;;;;;;;;;;;4196016;28;19928;-65
2023/12/18 07:49:57;;;;;;;;;;;;;;;;;;4193664;28;20047;-64
2023/12/18 07:51:59;;;;;;;;;;;;;;;;;;4191802;28;20406;-64
2023/12/18 07:54:00;;;;;;;;;;;;;;;;;;4197882;28;20140;-64
2023/12/18 07:56:02;;;;;;;;;;;;;;;;;;4198882;28;19974;-65
2023/12/18 07:58:03;;;;;;;;;;;;;;;;;;4193552;28;19928;-64
2023/12/18 08:00:05;;;;;;;;;;;;;;;;;;4198310;28;19924;-64
2023/12/18 08:02:07;;;;;;;;;;;;;;;;;;4195098;28;19932;-64
2023/12/18 08:04:08;;;;;;;;;;;;;;;;;;4198219;28;19928;-64
2023/12/18 08:06:10;;;;;;;;;;;;;;;;;;4193200;28;19928;-64
2023/12/18 08:08:11;;;;;;;;;;;;;;;;;;4191418;28;20335;-65
2023/12/18 08:10:13;;;;;;;;;;;;;;;;;;4193866;28;20469;-64
2023/12/18 08:12:14;;;;;;;;;;;;;;;;;;4193046;28;20350;-64
2023/12/18 08:14:16;;;;;;;;;;;;;;;;;;4191642;28;20408;-64
2023/12/18 08:16:18;;;;;;;;;;;;;;;;;;4193668;28;19928;-64
2023/12/18 08:18:20;;;;;;;;;;;;;;;;;;4185685;28;19931;-64
2023/12/18 08:20:21;;;;;;;;;;;;;;;;;;4181325;28;19933;-64
2023/12/18 08:22:23;;;;;;;;;;;;;;;;;;4180227;28;20350;-64
2023/12/18 08:24:24;;;;;;;;;;;;;;;;;;4180500;28;19931;-64
2023/12/18 08:26:26;;;;;;;;;;;;;;;;;;4180951;28;19971;-64
2023/12/18 08:28:27;;;;;;;;;;;;;;;;;;4181043;28;20349;-64
2023/12/18 08:30:29;;;;;;;;;;;;;;;;;;4197428;28;20015;-64
2023/12/18 08:32:30;;;;;;;;;;;;;;;;;;4195283;28;19924;-64
2023/12/18 08:34:32;;;;;;;;;;;;;;;;;;4189242;28;19971;-64
2023/12/18 08:36:34;;;;;;;;;;;;;;;;;;4191932;28;20309;-63
2023/12/18 08:38:36;;;;;;;;;;;;;;;;;;4193357;28;19935;-64
2023/12/18 08:40:37;;;;;;;;;;;;;;;;;;4196739;28;20418;-64
2023/12/18 08:42:39;;;;;;;;;;;;;;;;;;4195879;28;19951;-64
2023/12/18 08:44:41;;;;;;;;;;;;;;;;;;4195374;28;19935;-64
2023/12/18 08:46:42;;;;;;;;;;;;;;;;;;4200013;28;20024;-64
2023/12/18 08:48:43;;;;;;;;;;;;;;;;;;4191965;28;20016;-65
2023/12/18 08:50:45;;;;;;;;;;;;;;;;;;4184880;28;19925;-64
2023/12/18 08:52:46;;;;;;;;;;;;;;;;;;4194060;28;20027;-64
2023/12/18 08:54:48;;;;;;;;;;;;;;;;;;4190190;28;19974;-65
2023/12/18 08:56:51;;;;;;;;;;;;;;;;;;4197675;28;19925;-64
2023/12/18 08:58:55;;;;;;;;;;;;;;;;;;4196017;28;19940;-64
2023/12/18 09:00:57;;;;;;;;;;;;;;;;;;4197683;28;19929;-64
2023/12/18 09:02:59;;;;;;;;;;;;;;;;;;4197741;28;19924;-64
2023/12/18 09:05:00;;;;;;;;;;;;;;;;;;4194551;28;19932;-64
2023/12/18 09:07:02;;;;;;;;;;;;;;;;;;4199358;28;19928;-64
2023/12/18 09:09:03;;;;;;;;;;;;;;;;;;4199968;28;20453;-64
2023/12/18 09:11:06;;;;;;;;;;;;;;;;;;4190532;28;20303;-64
2023/12/18 09:13:07;;;;;;;;;;;;;;;;;;4195835;28;19928;-64
2023/12/18 09:15:09;;;;;;;;;;;;;;;;;;4202538;28;20358;-64
2023/12/18 09:17:10;;;;;;;;;;;;;;;;;;4202413;28;19925;-64
2023/12/18 09:19:12;;;;;;;;;;;;;;;;;;4197168;28;19973;-63
2023/12/18 09:21:13;;;;;;;;;;;;;;;;;;4197519;28;19925;-64
2023/12/18 09:23:15;;;;;;;;;;;;;;;;;;4196043;28;19989;-66
2023/12/18 09:25:17;;;;;;;;;;;;;;;;;;4191589;28;19928;-67
2023/12/18 09:27:18;;;;;;;;;;;;;;;;;;4210512;28;19924;-67
2023/12/18 09:29:20;;;;;;;;;;;;;;;;;;4192140;28;20319;-67
2023/12/18 09:31:22;;;;;;;;;;;;;;;;;;4189212;28;19928;-64
2023/12/18 09:33:24;;;;;;;;;;;;;;;;;;4197196;28;19932;-67
2023/12/18 09:35:25;;;;;;;;;;;;;;;;;;4197076;28;19931;-67
2023/12/18 09:37:28;;;;;;;;;;;;;;;;;;4197453;28;20007;-67
2023/12/18 09:39:29;;;;;;;;;;;;;;;;;;4197612;28;19972;-67
2023/12/18 09:41:31;;;;;;;;;;;;;;;;;;4197705;28;19931;-66
2023/12/18 09:43:32;;;;;;;;;;;;;;;;;;4197436;28;19994;-67
2023/12/18 09:45:34;;;;;;;;;;;;;;;;;;4195560;28;19931;-67
2023/12/18 09:47:35;;;;;;;;;;;;;;;;;;4188237;28;19931;-67
2023/12/18 09:49:37;;;;;;;;;;;;;;;;;;4194600;28;19993;-67
2023/12/18 09:51:38;;;;;;;;;;;;;;;;;;4195043;28;20392;-67
2023/12/18 09:53:40;;;;;;;;;;;;;;;;;;4201924;28;19932;-67
2023/12/18 09:55:42;;;;;;;;;;;;;;;;;;4198188;28;19928;-67
2023/12/18 09:57:43;;;;;;;;;;;;;;;;;;4197732;28;20391;-66
2023/12/18 09:59:45;;;;;;;;;;;;;;;;;;4194859;28;19932;-66
2023/12/18 10:01:46;;;;;;;;;;;;;;;;;;4199989;28;19931;-67
2023/12/18 10:03:48;;;;;;;;;;;;;;;;;;4200178;28;19931;-67
2023/12/18 10:05:49;;;;;;;;;;;;;;;;;;4199061;28;19924;-67
2023/12/18 10:07:51;;;;;;;;;;;;;;;;;;4200137;28;19990;-67
2023/12/18 10:09:53;;;;;;;;;;;;;;;;;;4216257;28;19931;-67
2023/12/18 10:11:54;;;;;;;;;;;;;;;;;;4216720;28;19934;-67
2023/12/18 10:13:56;;;;;;;;;;;;;;;;;;4216902;28;20299;-66
2023/12/18 10:15:58;;;;;;;;;;;;;;;;;;4216959;28;19927;-67
2023/12/18 10:18:00;;;;;;;;;;;;;;;;;;4217066;28;19931;-67
2023/12/18 10:20:04;;;;;;;;;;;;;;;;;;4215933;28;19928;-66
2023/12/18 10:22:06;;;;;;;;;;;;;;;;;;4216404;28;20292;-66
2023/12/18 10:24:07;;;;;;;;;;;;;;;;;;4213180;28;19924;-67
2023/12/18 10:26:09;;;;;;;;;;;;;;;;;;4191249;28;20015;-67
2023/12/18 10:28:10;;;;;;;;;;;;;;;;;;4196685;28;19924;-66
2023/12/18 10:30:12;;;;;;;;;;;;;;;;;;4206047;28;20414;-66
2023/12/18 10:32:15;;;;;;;;;;;;;;;;;;4207099;28;20374;-66
2023/12/18 10:34:16;;;;;;;;;;;;;;;;;;4196454;28;20004;-66
2023/12/18 10:36:18;;;;;;;;;;;;;;;;;;4200019;28;20372;-67
2023/12/18 10:38:20;;;;;;;;;;;;;;;;;;4193239;28;20036;-67
2023/12/18 10:40:26;;;;;;;;;;;;;;;;;;4193143;28;19935;-66
2023/12/18 10:42:27;;;;;;;;;;;;;;;;;;4198168;28;19948;-67
2023/12/18 10:44:29;;;;;;;;;;;;;;;;;;4198281;28;19925;-66
2023/12/18 10:46:31;;;;;;;;;;;;;;;;;;4198206;28;19924;-66
2023/12/18 10:48:32;;;;;;;;;;;;;;;;;;4198738;28;19975;-66
2023/12/18 10:50:34;;;;;;;;;;;;;;;;;;4199133;28;19931;-67
2023/12/18 10:52:35;;;;;;;;;;;;;;;;;;4204490;28;19973;-64
2023/12/18 10:54:37;;;;;;;;;;;;;;;;;;4199015;28;19925;-65
2023/12/18 10:56:38;;;;;;;;;;;;;;;;;;4199254;28;20223;-65
2023/12/18 10:58:39;;;;;;;;;;;;;;;;;;4196917;28;20055;-65
2023/12/18 11:00:41;;;;;;;;;;;;;;;;;;4194000;28;20368;-64
2023/12/18 11:02:43;;;;;;;;;;;;;;;;;;4195021;28;20296;-64
2023/12/18 11:04:46;;;;;;;;;;;;;;;;;;4195445;28;20299;-65
2023/12/18 11:06:47;;;;;;;;;;;;;;;;;;4184238;28;20430;-65
2023/12/18 11:08:50;;;;;;;;;;;;;;;;;;4196906;28;20017;-65
2023/12/18 11:10:52;;;;;;;;;;;;;;;;;;4197418;28;19928;-64
2023/12/18 11:12:53;;;;;;;;;;;;;;;;;;4199562;28;20024;-65
2023/12/18 11:14:55;;;;;;;;;;;;;;;;;;4197603;28;19935;-65
2023/12/18 11:16:56;;;;;;;;;;;;;;;;;;4198914;28;20293;-64
2023/12/18 11:18:58;;;;;;;;;;;;;;;;;;4199154;28;19925;-65
2023/12/18 11:21:08;;;;;;;;;;;;;;;;;;4192259;28;19935;-64
2023/12/18 11:23:10;;;;;;;;;;;;;;;;;;4191641;28;19953;-64
2023/12/18 11:25:11;;;;;;;;;;;;;;;;;;4193616;28;19932;-64
2023/12/18 11:27:13;;;;;;;;;;;;;;;;;;4189762;28;20398;-64
2023/12/18 11:29:14;;;;;;;;;;;;;;;;;;4190228;28;19932;-64
2023/12/18 11:31:20;;;;;;;;;;;;;;;;;;4190315;28;20307;-65
2023/12/18 11:33:21;;;;;;;;;;;;;;;;;;4198601;28;19924;-65
2023/12/18 11:35:23;;;;;;;;;;;;;;;;;;4186599;28;19929;-64
2023/12/18 11:37:24;;;;;;;;;;;;;;;;;;4190999;28;20030;-65
2023/12/18 11:39:26;;;;;;;;;;;;;;;;;;4192917;28;20658;-65
2023/12/18 11:41:27;;;;;;;;;;;;;;;;;;4190261;28;19978;-64
2023/12/18 11:43:29;;;;;;;;;;;;;;;;;;4182358;28;20385;-65
2023/12/18 11:45:30;;;;;;;;;;;;;;;;;;4187435;28;20295;-64
2023/12/18 11:47:32;;;;;;;;;;;;;;;;;;4196837;28;19925;-65
2023/12/18 11:49:33;;;;;;;;;;;;;;;;;;4190083;28;19928;-64
2023/12/18 11:51:35;;;;;;;;;;;;;;;;;;4193866;28;19931;-66
2023/12/18 11:54:50;;;;;;;12.57;11.65;;;;;;;;;;4223741;27;20105;-65
2023/12/18 11:56:53;;;;;;;10.43;9.45;;;;;;;;;;4202250;28;20048;-65
2023/12/18 11:58:56;;;;;;;15.60;13.45;;;;;;;;;;4211773;28;20064;-65
2023/12/18 12:00:58;;;;;;;29.25;25.73;;;;;;;;;;4194220;28;20530;-65
2023/12/18 12:03:00;;;;;;;;;;;;;;;;;;4216564;28;20090;-64
2023/12/18 12:05:02;;;;;;;20.17;18.05;;;;;;;;;;4216474;28;20027;-65
2023/12/18 12:07:04;;;;;;;11.88;10.88;;;;;;;;;;4212738;28;20051;-65
2023/12/18 12:09:06;;;;;;;10.45;9.68;;;;;;;;;;4212039;28;20139;-65
2023/12/18 12:11:08;;;;;;;5.95;5.72;;;;;;;;;;4209408;28;20044;-64
2023/12/18 12:13:16;;;;;;;4.95;4.82;;;;;;;;;;4210679;28;20063;-65
2023/12/18 12:15:18;;;;;;;7.57;7.07;;;;;;;;;;4215829;28;20411;-64
2023/12/18 12:17:20;;;;;;;24.75;17.67;;;;;;;;;;4212399;28;20604;-65
2023/12/18 12:19:31;;;;;;;10.05;9.07;;;;;;;;;;4212164;28;20123;-65
2023/12/18 12:21:33;;;;;;;10.30;9.60;;;;;;;;;;4219571;28;20047;-66
2023/12/18 12:23:46;;;;;;;;;;;;;;;;;;4214551;28;20036;-66
2023/12/18 12:25:49;;;;;;;28.67;21.05;;;;;;;;;;4218787;28;19934;-66
2023/12/18 12:27:51;;;;;;;15.90;14.27;;;;;;;;;;4216455;28;20448;-66
2023/12/18 12:29:53;;;;;;;16.27;14.60;;;;;;;;;;4210894;28;20071;-66
2023/12/18 12:31:55;;;;;;;11.32;10.27;;;;;;;;;;4210631;28;20040;-66
2023/12/18 12:34:11;;;;;;;18.63;16.83;;;;;;;;;;4219336;28;20040;-66
2023/12/18 12:36:21;;;;;;;9.20;8.27;;;;;;;;;;4211325;28;20064;-66
2023/12/18 12:38:23;;;;;;;8.77;8.07;;;;;;;;;;4212810;28;20054;-66
2023/12/18 12:40:35;;;;;;;11.73;8.45;;;;;;;;;;4209272;28;20470;-66
2023/12/18 12:42:41;;;;;;;19.43;17.93;;;;;;;;;;4215265;28;20043;-66
2023/12/18 12:44:43;;;;;;;9.43;8.90;;;;;;;;;;4212822;28;20660;-66
2023/12/18 12:46:45;;;;;;;8.80;8.35;;;;;;;;;;4211752;28;20527;-66
2023/12/18 12:48:49;;;;;;;7.20;6.80;;;;;;;;;;4212351;28;20434;-66
2023/12/18 12:50:51;;;;;;;7.85;7.25;;;;;;;;;;4211785;28;20044;-66
2023/12/18 12:52:53;;;;;;;10.20;7.78;;;;;;;;;;4214621;28;20036;-66
2023/12/18 12:54:54;;;;;;;8.00;6.57;;;;;;;;;;4210021;28;20047;-66
2023/12/18 12:56:56;;;;;;;6.20;5.80;;;;;;;;;;4210348;28;20115;-66
2023/12/18 12:58:58;;;;;;;6.80;4.93;;;;;;;;;;4210557;28;20068;-66
2023/12/18 13:01:01;;;;;;;6.60;5.97;;;;;;;;;;4210128;28;20483;-66
2023/12/18 13:03:04;;;;;;;9.13;7.38;;;;;;;;;;4210378;28;20287;-66
2023/12/18 13:05:08;;;;;;;6.28;5.80;;;;;;;;;;4203445;28;20071;-66
2023/12/18 13:07:11;;;;;;;8.40;5.82;;;;;;;;;;4202834;28;20094;-66
2023/12/18 13:09:12;;;;;;;;;;;;;;;;;;4203370;28;20472;-66
2023/12/18 13:11:16;;;;;;;6.03;5.70;;;;;;;;;;4203523;28;19924;-66
2023/12/18 13:13:17;;;;;;;11.15;8.70;;;;;;;;;;4201054;28;20074;-66
2023/12/18 13:15:19;;;;;;;6.57;6.10;;;;;;;;;;4198358;28;20036;-66
2023/12/18 13:17:21;;;;;;;8.02;7.20;;;;;;;;;;4197359;28;20036;-66
2023/12/18 13:19:23;;;;;;;8.70;8.07;;;;;;;;;;4194101;28;20040;-66
2023/12/18 13:21:24;;;;;;;8.63;6.03;;;;;;;;;;4200518;28;20041;-66
2023/12/18 13:23:26;;;;;;;25.27;17.45;;;;;;;;;;4209351;28;20032;-66
2023/12/18 13:25:28;;;;;;;8.10;7.50;;;;;;;;;;4197958;28;20036;-66
2023/12/18 13:27:29;;;;;;;7.30;6.38;;;;;;;;;;4205034;28;20119;-65
2023/12/18 13:29:35;;;;;;;4.15;3.95;;;;;;;;;;4199673;28;20036;-66
2023/12/18 13:31:37;;;;;;;6.72;6.18;;;;;;;;;;4197387;28;20119;-65
2023/12/18 13:33:39;;;;;;;8.80;7.35;;;;;;;;;;4198320;28;20044;-66
2023/12/18 13:35:41;;;;;;;7.75;7.13;;;;;;;;;;4199843;28;20059;-66
2023/12/18 13:37:43;;;;;;;4.10;3.88;;;;;;;;;;4205738;28;20499;-66